Forside
METAR-TAF:

METAR-TAF

Lufthavne :

Beirut, Libanon

Breddekreds: 33-49N, længdekreds: 035-29E, højde: 29 m

Aktuelle vejr

Denne rapport blev lavet for 1 time og 8 minutter siden, kl. 17:00 UTC
Vind 9 kt fra sydvest
Temperatur 29°C
Fugtighed 70%
Tryk 1007 hPa
Sigt: 7000 m
Spredte skyer i en højde af 2700 ft

METAR: OLBA 141700Z 23009KT 7000 SCT027 29/23 Q1007 NOSIG

Tid: 21:08 (18:08 UTC)

Vejrudsigter

Denne rapport blev lavet for 2 timer og 8 minutter siden, kl. 16:00 UTC
Foreløbig gælder fra 14 på 18 UTC til 15 på 24 UTC
Vind 15 kt fra sydvest
Sigt: 8000 m
Spredte skyer i en højde af 2600 ft
ændring
fra 14 på 20 UTC til 14 på 22 UTC
Vind 6 kt fra sydøst
Nogle få skyer i en højde af 2600 ft
ændring
fra 15 på 06 UTC til 15 på 08 UTC
Vind 10 kt fra sydvest med vindstød på up til 20 kt
Spredte skyer i en højde af 2300 ft
ændring
fra 15 på 20 UTC til 15 på 22 UTC
Vind 6 kt fra sydøst

TAF: OLBA 141600Z 1418/1524 23015KT 8000 SCT026 BECMG 1420/1422 14006KT FEW026 BECMG 1506/1508 23010G20KT SCT023 BECMG 1520/1522 14006KT

Vejrobservationer og prognoser fra mere end 4000 lufthavne (METAR og TAF).

De gule og røde prikker repræsenterer de meteorologiske stationer.

Flyt musen over at se navnet på stationen.

Så klik over at se vejr observationer og prognoser.

At skifte det kort: Klik på de grønne knapper med et sort kors for at zoome ind; på den grønne knap med en bindestreg for at zoome ud; eller på de grønne pile for tilstødende kort.


METAR-TAF: